Time;durP1;ratioP1;P1;durP2;ratioP2;P2;SDS_P1;SDS_P2;PMS_P1;PMS_P2;Temp;Humidity;BMP_temperature;BMP_pressure;BME280_temperature;BME280_humidity;BME280_pressure;Samples;Min_cycle;Max_cycle;Signal;HPM_P1;HPM_P2
2021/07/05 00:00:40;;;;;;;2.35;0.90;;;;;;;;;;5051910;28;20042;-80
2021/07/05 00:03:07;;;;;;;2.47;0.80;;;;;;;;;;5053506;28;20050;-81
2021/07/05 00:05:33;;;;;;;1.10;0.70;;;;;;;;;;5053363;28;20049;-81
2021/07/05 00:08:00;;;;;;;1.65;0.55;;;;;;;;;;5052487;28;20414;-80
2021/07/05 00:10:29;;;;;;;1.20;0.60;;;;;;;;;;5054252;28;20042;-81
2021/07/05 00:12:56;;;;;;;2.42;0.65;;;;;;;;;;5054709;28;20046;-81
2021/07/05 00:15:26;;;;;;;2.95;0.73;;;;;;;;;;5053774;28;20056;-81
2021/07/05 00:17:56;;;;;;;1.73;0.65;;;;;;;;;;5053661;28;20041;-81
2021/07/05 00:20:24;;;;;;;0.95;0.50;;;;;;;;;;5051679;28;20048;-80
2021/07/05 00:22:51;;;;;;;1.42;0.70;;;;;;;;;;5048638;28;20041;-81
2021/07/05 00:25:19;;;;;;;1.65;0.70;;;;;;;;;;5042826;28;20484;-81
2021/07/05 00:27:47;;;;;;;1.08;0.70;;;;;;;;;;5038971;28;20136;-81
2021/07/05 00:30:16;;;;;;;1.38;0.70;;;;;;;;;;5038331;28;20081;-81
2021/07/05 00:32:43;;;;;;;1.25;0.60;;;;;;;;;;5036107;28;20053;-81
2021/07/05 00:35:11;;;;;;;2.30;0.70;;;;;;;;;;5039237;28;20076;-81
2021/07/05 00:37:38;;;;;;;1.05;0.60;;;;;;;;;;5040335;28;20487;-82
2021/07/05 00:40:06;;;;;;;1.85;0.60;;;;;;;;;;5039776;28;20045;-82
2021/07/05 00:42:33;;;;;;;1.20;0.70;;;;;;;;;;5040399;28;20042;-82
2021/07/05 00:45:02;;;;;;;0.68;0.50;;;;;;;;;;5051870;28;20045;-81
2021/07/05 00:47:29;;;;;;;2.25;0.70;;;;;;;;;;5049295;28;20053;-81
2021/07/05 00:49:56;;;;;;;2.33;0.70;;;;;;;;;;5040724;28;20049;-82
2021/07/05 00:52:23;;;;;;;1.25;0.70;;;;;;;;;;5039180;28;20087;-82
2021/07/05 00:54:49;;;;;;;0.65;0.60;;;;;;;;;;5039302;28;20418;-82
2021/07/05 00:57:23;;;;;;;1.48;0.70;;;;;;;;;;5038383;28;20057;-81
2021/07/05 00:59:52;;;;;;;2.30;0.90;;;;;;;;;;5037863;28;20056;-81
2021/07/05 01:02:26;;;;;;;1.77;0.60;;;;;;;;;;5038354;28;20041;-82
2021/07/05 01:04:53;;;;;;;1.30;0.63;;;;;;;;;;5039542;28;20069;-82
2021/07/05 01:07:22;;;;;;;1.85;0.82;;;;;;;;;;5039674;28;20415;-82
2021/07/05 01:09:49;;;;;;;1.35;0.80;;;;;;;;;;5039360;28;20077;-82
2021/07/05 01:12:17;;;;;;;1.90;0.73;;;;;;;;;;5038269;28;20085;-82
2021/07/05 01:14:44;;;;;;;2.75;0.80;;;;;;;;;;5038348;28;20045;-82
2021/07/05 01:17:13;;;;;;;1.13;0.70;;;;;;;;;;5038530;28;20045;-82
2021/07/05 01:19:43;;;;;;;2.00;0.90;;;;;;;;;;5037657;28;20050;-82
2021/07/05 01:22:12;;;;;;;1.88;0.85;;;;;;;;;;5037876;28;20053;-82
2021/07/05 01:24:39;;;;;;;1.98;0.80;;;;;;;;;;5038111;28;20045;-82
2021/07/05 01:27:06;;;;;;;3.05;0.95;;;;;;;;;;5037458;28;20107;-81
2021/07/05 01:29:34;;;;;;;2.65;1.05;;;;;;;;;;5035798;28;20104;-81
2021/07/05 01:32:01;;;;;;;2.10;1.00;;;;;;;;;;5035613;28;20076;-81
2021/07/05 01:34:34;;;;;;;2.55;1.10;;;;;;;;;;5036351;28;20065;-82
2021/07/05 01:37:01;;;;;;;3.63;1.42;;;;;;;;;;5035588;28;20080;-81
2021/07/05 01:39:30;;;;;;;2.67;1.30;;;;;;;;;;5036477;28;20485;-81
2021/07/05 01:41:56;;;;;;;3.08;1.25;;;;;;;;;;5036144;28;20041;-81
2021/07/05 01:44:23;;;;;;;3.20;1.00;;;;;;;;;;5036370;28;20506;-81
2021/07/05 01:46:50;;;;;;;4.07;1.20;;;;;;;;;;5043925;28;20072;-81
2021/07/05 01:49:16;;;;;;;2.83;1.10;;;;;;;;;;5046296;28;20095;-82
2021/07/05 01:51:43;;;;;;;2.92;1.40;;;;;;;;;;5047414;28;20045;-82
2021/07/05 01:54:14;;;;;;;2.28;1.10;;;;;;;;;;5048287;28;20045;-81
2021/07/05 01:56:43;;;;;;;2.97;1.20;;;;;;;;;;5042516;28;20498;-82
2021/07/05 01:59:09;;;;;;;2.38;1.10;;;;;;;;;;5036891;28;20469;-82
2021/07/05 02:01:37;;;;;;;2.33;1.20;;;;;;;;;;5036569;28;20053;-82
2021/07/05 02:04:04;;;;;;;2.15;1.05;;;;;;;;;;5036455;28;20049;-82
2021/07/05 02:06:30;;;;;;;2.88;1.13;;;;;;;;;;5036997;28;20049;-82
2021/07/05 02:08:57;;;;;;;5.55;1.65;;;;;;;;;;5037812;28;20045;-82
2021/07/05 02:11:25;;;;;;;5.57;1.30;;;;;;;;;;5035756;28;20076;-82
2021/07/05 02:13:53;;;;;;;3.33;1.40;;;;;;;;;;5036305;28;20077;-81
2021/07/05 02:16:20;;;;;;;2.47;1.23;;;;;;;;;;5035628;28;20506;-82
2021/07/05 02:18:49;;;;;;;3.50;1.42;;;;;;;;;;5035549;28;20560;-82
2021/07/05 02:21:16;;;;;;;3.00;1.33;;;;;;;;;;5085266;22;20459;-75
2021/07/05 02:23:43;;;;;;;4.35;2.03;;;;;;;;;;5071839;28;20492;-77
2021/07/05 02:26:09;;;;;;;4.78;1.83;;;;;;;;;;5071985;28;20132;-75
2021/07/05 02:28:38;;;;;;;3.85;1.80;;;;;;;;;;5071767;28;20556;-76
2021/07/05 02:31:08;;;;;;;3.97;1.92;;;;;;;;;;5071010;28;20139;-76
2021/07/05 02:33:35;;;;;;;3.28;1.70;;;;;;;;;;5071319;28;20044;-76
2021/07/05 02:36:04;;;;;;;4.15;1.70;;;;;;;;;;5071786;28;20052;-76
2021/07/05 02:38:34;;;;;;;3.97;2.03;;;;;;;;;;5071525;28;20045;-75
2021/07/05 02:41:00;;;;;;;4.20;1.80;;;;;;;;;;5071160;28;20080;-75
2021/07/05 02:43:27;;;;;;;4.13;1.90;;;;;;;;;;5073090;28;20124;-76
2021/07/05 02:45:57;;;;;;;4.22;1.95;;;;;;;;;;5075647;28;20131;-75
2021/07/05 02:48:26;;;;;;;4.78;2.33;;;;;;;;;;5076060;28;20049;-74
2021/07/05 02:50:56;;;;;;;3.50;1.80;;;;;;;;;;5075537;28;20131;-74
2021/07/05 02:53:23;;;;;;;5.13;2.50;;;;;;;;;;5076505;28;20124;-75
2021/07/05 02:55:50;;;;;;;4.40;1.77;;;;;;;;;;5075879;28;20094;-76
2021/07/05 02:58:17;;;;;;;3.60;1.77;;;;;;;;;;5075367;28;20136;-76
2021/07/05 03:00:46;;;;;;;4.28;1.98;;;;;;;;;;5074734;28;20124;-76
2021/07/05 03:03:14;;;;;;;3.45;1.60;;;;;;;;;;5075716;28;20041;-76
2021/07/05 03:05:42;;;;;;;3.35;1.60;;;;;;;;;;5075402;28;20041;-76
2021/07/05 03:08:10;;;;;;;4.32;1.60;;;;;;;;;;5075546;28;20126;-76
2021/07/05 03:10:39;;;;;;;3.60;1.80;;;;;;;;;;5074208;28;20123;-76
2021/07/05 03:13:10;;;;;;;3.03;1.60;;;;;;;;;;5055180;28;20124;-76
2021/07/05 03:15:37;;;;;;;4.03;1.60;;;;;;;;;;5055292;28;20049;-75
2021/07/05 03:18:05;;;;;;;3.60;1.67;;;;;;;;;;5054892;28;20077;-75
2021/07/05 03:20:33;;;;;;;3.58;1.83;;;;;;;;;;5054103;28;20084;-76
2021/07/05 03:23:03;;;;;;;4.63;2.20;;;;;;;;;;5055036;28;20489;-76
2021/07/05 03:25:32;;;;;;;4.33;2.40;;;;;;;;;;5054912;28;20091;-75
2021/07/05 03:27:59;;;;;;;5.05;2.42;;;;;;;;;;5055242;28;20320;-76
2021/07/05 03:30:28;;;;;;;3.70;2.13;;;;;;;;;;5054387;28;20085;-76
2021/07/05 03:32:55;;;;;;;3.28;2.00;;;;;;;;;;5055003;28;20494;-76
2021/07/05 03:35:22;;;;;;;4.00;2.13;;;;;;;;;;5054621;28;20136;-75
2021/07/05 03:37:51;;;;;;;2.92;1.80;;;;;;;;;;5054648;28;20124;-76
2021/07/05 03:40:21;;;;;;;3.55;1.58;;;;;;;;;;5054487;28;20077;-76
2021/07/05 03:42:49;;;;;;;6.30;2.20;;;;;;;;;;5054206;28;20084;-76
2021/07/05 03:45:17;;;;;;;4.65;2.40;;;;;;;;;;5054870;28;20080;-76
2021/07/05 03:47:44;;;;;;;4.32;2.40;;;;;;;;;;5055038;28;20076;-75
2021/07/05 03:50:14;;;;;;;4.88;2.50;;;;;;;;;;5054299;28;20103;-76
2021/07/05 03:52:41;;;;;;;3.78;2.13;;;;;;;;;;5054458;28;20472;-76
2021/07/05 03:55:10;;;;;;;5.13;3.17;;;;;;;;;;5054594;28;20084;-77
2021/07/05 03:57:38;;;;;;;4.30;2.75;;;;;;;;;;5054529;28;20132;-77
2021/07/05 04:00:09;;;;;;;4.90;2.35;;;;;;;;;;5057440;28;20072;-76
2021/07/05 04:02:36;;;;;;;4.32;2.67;;;;;;;;;;5073661;28;20532;-76
2021/07/05 04:05:04;;;;;;;5.05;2.70;;;;;;;;;;5074137;28;20127;-77
2021/07/05 04:07:31;;;;;;;3.55;2.25;;;;;;;;;;5074079;28;20129;-75
2021/07/05 04:09:58;;;;;;;3.75;2.20;;;;;;;;;;5074229;28;20041;-75
2021/07/05 04:12:24;;;;;;;6.53;3.00;;;;;;;;;;5058523;28;20045;-75
2021/07/05 04:14:52;;;;;;;4.88;2.28;;;;;;;;;;5053887;28;20080;-75
2021/07/05 04:17:19;;;;;;;5.50;2.28;;;;;;;;;;5054366;28;20131;-76
2021/07/05 04:19:46;;;;;;;5.18;2.20;;;;;;;;;;5053954;28;20374;-76
2021/07/05 04:22:15;;;;;;;3.72;2.30;;;;;;;;;;5053781;28;20071;-76
2021/07/05 04:24:42;;;;;;;6.65;2.38;;;;;;;;;;5054648;28;20144;-76
2021/07/05 04:27:09;;;;;;;3.83;2.17;;;;;;;;;;5054201;28;20462;-76
2021/07/05 04:29:35;;;;;;;5.55;2.42;;;;;;;;;;5054716;28;20085;-76
2021/07/05 04:32:04;;;;;;;3.92;2.50;;;;;;;;;;5053500;28;20076;-77
2021/07/05 04:34:31;;;;;;;3.60;1.88;;;;;;;;;;5054091;28;20045;-77
2021/07/05 04:36:57;;;;;;;4.72;2.15;;;;;;;;;;5053622;28;20083;-77
2021/07/05 04:39:24;;;;;;;4.10;2.05;;;;;;;;;;5053941;28;20154;-77
2021/07/05 04:41:51;;;;;;;4.03;2.08;;;;;;;;;;5053051;28;20044;-77
2021/07/05 04:44:18;;;;;;;4.25;2.10;;;;;;;;;;5053746;28;20127;-77
2021/07/05 04:46:48;;;;;;;3.45;2.20;;;;;;;;;;5053465;28;20127;-76
2021/07/05 04:49:17;;;;;;;3.67;2.13;;;;;;;;;;5054170;28;20106;-76
2021/07/05 04:51:43;;;;;;;5.38;2.08;;;;;;;;;;5052941;28;20368;-76
2021/07/05 04:54:10;;;;;;;3.38;1.95;;;;;;;;;;5053517;28;20483;-76
2021/07/05 04:56:38;;;;;;;4.03;2.03;;;;;;;;;;5053562;28;20084;-77
2021/07/05 04:59:06;;;;;;;3.50;1.50;;;;;;;;;;5053333;28;20474;-77
2021/07/05 05:01:33;;;;;;;4.45;1.88;;;;;;;;;;5068161;28;20087;-76
2021/07/05 05:04:00;;;;;;;4.63;2.00;;;;;;;;;;5074244;28;20555;-77
2021/07/05 05:06:28;;;;;;;5.25;2.30;;;;;;;;;;5072930;28;20045;-76
2021/07/05 05:08:54;;;;;;;4.00;2.03;;;;;;;;;;5073394;28;20223;-77
2021/07/05 05:11:21;;;;;;;4.53;2.20;;;;;;;;;;5066100;28;20080;-77
2021/07/05 05:13:48;;;;;;;4.10;2.08;;;;;;;;;;5053338;28;20562;-77
2021/07/05 05:16:16;;;;;;;3.83;1.73;;;;;;;;;;5053356;28;20073;-76
2021/07/05 05:18:43;;;;;;;3.78;1.98;;;;;;;;;;5053198;28;20045;-76
2021/07/05 05:21:10;;;;;;;4.20;1.90;;;;;;;;;;5052473;28;20144;-77
2021/07/05 05:23:39;;;;;;;3.33;1.67;;;;;;;;;;5052986;28;20505;-76
2021/07/05 05:26:05;;;;;;;4.80;2.28;;;;;;;;;;5053447;28;20084;-77
2021/07/05 05:28:32;;;;;;;3.47;1.75;;;;;;;;;;5053266;28;20581;-77
2021/07/05 05:30:59;;;;;;;3.53;1.75;;;;;;;;;;5052643;28;20597;-77
2021/07/05 05:33:26;;;;;;;3.30;1.77;;;;;;;;;;5053580;28;20045;-76
2021/07/05 05:35:54;;;;;;;3.85;1.88;;;;;;;;;;5053409;28;20470;-77
2021/07/05 05:38:20;;;;;;;4.35;1.80;;;;;;;;;;5057128;28;20056;-75
2021/07/05 05:40:48;;;;;;;3.42;1.30;;;;;;;;;;5059302;28;20084;-76
2021/07/05 05:43:16;;;;;;;3.17;1.45;;;;;;;;;;5056162;28;20084;-77
2021/07/05 05:45:42;;;;;;;4.10;1.80;;;;;;;;;;5052937;28;20044;-76
2021/07/05 05:48:09;;;;;;;3.08;1.30;;;;;;;;;;5052974;28;20136;-76
2021/07/05 05:50:35;;;;;;;3.60;1.75;;;;;;;;;;5051991;28;20084;-75
2021/07/05 05:53:02;;;;;;;3.75;1.63;;;;;;;;;;5052537;28;20076;-77
2021/07/05 05:55:29;;;;;;;2.15;1.27;;;;;;;;;;5052816;28;20092;-77
2021/07/05 05:57:57;;;;;;;2.78;1.25;;;;;;;;;;5052886;28;20569;-77
2021/07/05 06:00:25;;;;;;;2.53;1.30;;;;;;;;;;5058869;28;20125;-77
2021/07/05 06:02:53;;;;;;;2.38;1.10;;;;;;;;;;5072450;28;20509;-76
2021/07/05 06:05:21;;;;;;;2.33;1.23;;;;;;;;;;5072742;28;20086;-76
2021/07/05 06:07:49;;;;;;;2.75;1.00;;;;;;;;;;5072379;28;20076;-76
2021/07/05 06:10:17;;;;;;;1.88;1.15;;;;;;;;;;5072524;28;20068;-76
2021/07/05 06:12:44;;;;;;;3.08;1.20;;;;;;;;;;5054562;28;20076;-78
2021/07/05 06:15:13;;;;;;;3.40;1.40;;;;;;;;;;5052974;28;20132;-76
2021/07/05 06:17:40;;;;;;;1.98;1.10;;;;;;;;;;5051289;28;20482;-76
2021/07/05 06:20:08;;;;;;;3.60;0.98;;;;;;;;;;5052107;28;20091;-76
2021/07/05 06:22:41;;;;;;;3.42;1.40;;;;;;;;;;5051484;28;20466;-76
2021/07/05 06:25:10;;;;;;;2.03;1.10;;;;;;;;;;5052167;28;20094;-77
2021/07/05 06:27:37;;;;;;;5.50;1.40;;;;;;;;;;5052336;28;20083;-76
2021/07/05 06:30:05;;;;;;;2.63;1.00;;;;;;;;;;5052325;28;20124;-76
2021/07/05 06:32:33;;;;;;;2.08;1.10;;;;;;;;;;5051522;28;20163;-77
2021/07/05 06:35:00;;;;;;;2.47;0.98;;;;;;;;;;5052287;28;20069;-76
2021/07/05 06:37:27;;;;;;;3.17;1.20;;;;;;;;;;5052503;28;20124;-76
2021/07/05 06:39:54;;;;;;;3.03;1.38;;;;;;;;;;5051634;28;20087;-76
2021/07/05 06:42:20;;;;;;;2.45;1.10;;;;;;;;;;5051529;28;20083;-77
2021/07/05 06:44:47;;;;;;;1.55;1.02;;;;;;;;;;5051986;28;20124;-76
2021/07/05 06:47:14;;;;;;;2.30;1.13;;;;;;;;;;5051846;28;20084;-76
2021/07/05 06:49:42;;;;;;;3.40;1.23;;;;;;;;;;5051792;28;20498;-77
2021/07/05 06:52:09;;;;;;;2.03;1.02;;;;;;;;;;5056006;28;20053;-77
2021/07/05 06:54:36;;;;;;;5.78;2.35;;;;;;;;;;5052739;28;20092;-77
2021/07/05 06:57:04;;;;;;;2.42;1.08;;;;;;;;;;5052577;28;20106;-76
2021/07/05 06:59:31;;;;;;;2.33;1.05;;;;;;;;;;5056652;28;20048;-78
2021/07/05 07:01:58;;;;;;;2.20;1.15;;;;;;;;;;5073040;28;20041;-77
2021/07/05 07:04:24;;;;;;;1.92;1.02;;;;;;;;;;5071105;28;20090;-77
2021/07/05 07:06:52;;;;;;;2.05;1.10;;;;;;;;;;5071574;28;20509;-77
2021/07/05 07:09:19;;;;;;;2.50;1.20;;;;;;;;;;5072620;28;20044;-77
2021/07/05 07:11:46;;;;;;;3.58;1.75;;;;;;;;;;5069827;28;20079;-77
2021/07/05 07:14:13;;;;;;;2.08;1.20;;;;;;;;;;5071007;28;20080;-76
2021/07/05 07:16:43;;;;;;;2.72;1.08;;;;;;;;;;5070528;28;20136;-77
2021/07/05 07:21:55;;;;;;;3.35;1.30;;;;;;;;;;5069495;28;20049;-77
2021/07/05 07:24:21;;;;;;;1.83;1.00;;;;;;;;;;5070064;28;20502;-77
2021/07/05 07:26:49;;;;;;;2.28;1.20;;;;;;;;;;5069690;28;20086;-77
2021/07/05 07:29:16;;;;;;;2.38;1.13;;;;;;;;;;5070053;28;20139;-77
2021/07/05 07:31:43;;;;;;;2.40;1.10;;;;;;;;;;5073276;28;20140;-77
2021/07/05 07:34:10;;;;;;;2.72;1.20;;;;;;;;;;5076107;28;20120;-76
2021/07/05 07:36:38;;;;;;;2.35;1.20;;;;;;;;;;5073549;28;20048;-77
2021/07/05 07:39:09;;;;;;;3.83;1.40;;;;;;;;;;5074733;28;20067;-77
2021/07/05 07:41:36;;;;;;;1.95;1.13;;;;;;;;;;5086519;28;20074;-77
2021/07/05 07:44:03;;;;;;;3.17;1.17;;;;;;;;;;5086023;28;20053;-77
2021/07/05 07:46:30;;;;;;;1.75;1.00;;;;;;;;;;5088391;28;20024;-80
2021/07/05 07:48:58;;;;;;;2.20;1.10;;;;;;;;;;5080953;28;20051;-77
2021/07/05 07:51:25;;;;;;;3.72;1.40;;;;;;;;;;5079940;28;20091;-85
2021/07/05 07:53:51;;;;;;;3.33;1.08;;;;;;;;;;5080896;28;20045;-84
2021/07/05 07:56:19;;;;;;;2.38;1.05;;;;;;;;;;5077393;28;20094;-77
2021/07/05 07:58:46;;;;;;;3.38;1.60;;;;;;;;;;5072444;28;20076;-76
2021/07/05 08:01:14;;;;;;;2.20;1.10;;;;;;;;;;5062691;28;20045;-78
2021/07/05 08:03:40;;;;;;;3.40;1.05;;;;;;;;;;5057715;28;20049;-79
2021/07/05 08:06:07;;;;;;;2.65;1.30;;;;;;;;;;5056231;28;20041;-78
2021/07/05 08:08:34;;;;;;;2.85;1.00;;;;;;;;;;5054443;28;20697;-79
2021/07/05 08:11:02;;;;;;;10.65;5.35;;;;;;;;;;5054232;28;20048;-79
2021/07/05 08:13:30;;;;;;;3.75;1.88;;;;;;;;;;5055247;28;20049;-78
2021/07/05 08:15:56;;;;;;;1.88;1.00;;;;;;;;;;5053183;28;20490;-76
2021/07/05 08:18:23;;;;;;;2.60;0.98;;;;;;;;;;5052256;28;20541;-77
2021/07/05 08:20:50;;;;;;;3.92;1.25;;;;;;;;;;5053918;28;20084;-77
2021/07/05 08:23:17;;;;;;;2.20;1.25;;;;;;;;;;5052579;28;20109;-77
2021/07/05 08:25:44;;;;;;;2.40;1.20;;;;;;;;;;5052998;28;20512;-76
2021/07/05 08:28:11;;;;;;;2.10;1.23;;;;;;;;;;5055679;28;20075;-75
2021/07/05 08:30:40;;;;;;;2.35;1.33;;;;;;;;;;5051635;28;20595;-78
2021/07/05 08:33:06;;;;;;;1.50;0.85;;;;;;;;;;5052161;28;20647;-76
2021/07/05 08:35:33;;;;;;;4.40;1.20;;;;;;;;;;5052303;28;20135;-76
2021/07/05 08:38:00;;;;;;;2.05;1.10;;;;;;;;;;5052129;28;20087;-77
2021/07/05 08:40:27;;;;;;;1.98;1.20;;;;;;;;;;5050553;28;20049;-77
2021/07/05 08:42:55;;;;;;;2.50;1.35;;;;;;;;;;5051582;28;20132;-77
2021/07/05 08:45:22;;;;;;;2.70;1.20;;;;;;;;;;5052175;28;20045;-76
2021/07/05 08:47:52;;;;;;;2.83;1.33;;;;;;;;;;5052161;28;20117;-77
2021/07/05 08:50:21;;;;;;;3.92;1.50;;;;;;;;;;5051956;28;20736;-76
2021/07/05 08:52:48;;;;;;;2.47;1.40;;;;;;;;;;5051268;28;20048;-77
2021/07/05 08:55:16;;;;;;;2.20;1.10;;;;;;;;;;5051678;28;20131;-76
2021/07/05 08:57:43;;;;;;;2.47;1.10;;;;;;;;;;5051592;28;20506;-77
2021/07/05 09:00:13;;;;;;;3.38;1.10;;;;;;;;;;5051609;28;20148;-77
2021/07/05 09:02:40;;;;;;;2.35;1.20;;;;;;;;;;5051147;28;20647;-76
2021/07/05 09:05:10;;;;;;;2.97;1.30;;;;;;;;;;5051432;28;20080;-77
2021/07/05 09:07:55;;;;;;;3.25;1.75;;;;;;;;;;5051449;28;20099;-77
2021/07/05 09:10:22;;;;;;;3.75;1.25;;;;;;;;;;5051545;28;20099;-76
2021/07/05 09:13:07;;;;;;;2.72;1.30;;;;;;;;;;5068992;28;20083;-77
2021/07/05 09:15:40;;;;;;;2.03;1.00;;;;;;;;;;5071422;28;20056;-77
2021/07/05 09:18:31;;;;;;;1.30;0.82;;;;;;;;;;5062628;28;20045;-77
2021/07/05 09:21:11;;;;;;;2.95;0.85;;;;;;;;;;5053382;28;20083;-77
2021/07/05 09:23:45;;;;;;;3.53;1.45;;;;;;;;;;5071836;28;20110;-77
2021/07/05 09:26:19;;;;;;;1.75;1.00;;;;;;;;;;5072028;28;20086;-77
2021/07/05 09:28:45;;;;;;;2.28;1.20;;;;;;;;;;5072076;28;20060;-77
2021/07/05 09:31:12;;;;;;;3.00;1.23;;;;;;;;;;5070962;28;20049;-77
2021/07/05 09:33:46;;;;;;;2.65;1.30;;;;;;;;;;5070989;28;20052;-77
2021/07/05 09:36:21;;;;;;;2.38;1.15;;;;;;;;;;5063840;28;20492;-76
2021/07/05 09:38:47;;;;;;;3.50;1.40;;;;;;;;;;5051051;28;20056;-77
2021/07/05 09:41:23;;;;;;;2.72;1.27;;;;;;;;;;5050861;28;20223;-77
2021/07/05 09:43:55;;;;;;;3.22;1.15;;;;;;;;;;5057382;28;20119;-77
2021/07/05 09:46:39;;;;;;;2.97;1.10;;;;;;;;;;5069267;28;20041;-77
2021/07/05 09:49:12;;;;;;;2.30;1.17;;;;;;;;;;5071232;28;20048;-78
2021/07/05 09:51:41;;;;;;;2.60;0.93;;;;;;;;;;5070852;28;20127;-78
2021/07/05 09:54:08;;;;;;;2.75;1.30;;;;;;;;;;5070990;28;20041;-77
2021/07/05 09:56:35;;;;;;;2.35;1.10;;;;;;;;;;5070600;28;20461;-77
2021/07/05 09:59:15;;;;;;;2.45;1.05;;;;;;;;;;5070673;28;20087;-77
2021/07/05 10:01:44;;;;;;;2.67;0.85;;;;;;;;;;5054024;28;20081;-76
2021/07/05 10:04:13;;;;;;;2.38;1.17;;;;;;;;;;5052340;28;20045;-77
2021/07/05 10:06:45;;;;;;;1.52;0.95;;;;;;;;;;5050525;28;20103;-76
2021/07/05 10:09:14;;;;;;;2.72;1.13;;;;;;;;;;5050582;28;20532;-77
2021/07/05 10:11:40;;;;;;;2.00;1.00;;;;;;;;;;5059059;28;20044;-77
2021/07/05 10:14:17;;;;;;;2.20;1.00;;;;;;;;;;5070375;28;20071;-77
2021/07/05 10:16:44;;;;;;;3.20;1.75;;;;;;;;;;5070538;28;20110;-77
2021/07/05 10:19:14;;;;;;;3.45;1.27;;;;;;;;;;5070795;28;20048;-76
2021/07/05 10:21:42;;;;;;;4.82;2.20;;;;;;;;;;5070693;28;20056;-76
2021/07/05 10:24:10;;;;;;;3.22;1.23;;;;;;;;;;5069835;28;20576;-76
2021/07/05 10:26:39;;;;;;;5.95;2.30;;;;;;;;;;5070136;28;20489;-77
2021/07/05 10:29:07;;;;;;;1.67;1.05;;;;;;;;;;5070437;28;20521;-77
2021/07/05 10:31:34;;;;;;;2.28;1.02;;;;;;;;;;5070493;28;20048;-77
2021/07/05 10:34:02;;;;;;;2.05;1.00;;;;;;;;;;5071010;28;20072;-77
2021/07/05 10:36:32;;;;;;;1.48;0.90;;;;;;;;;;5072294;28;20085;-77
2021/07/05 10:39:01;;;;;;;;;;;;;;;;;;5071328;28;20127;-77
2021/07/05 10:41:34;;;;;;;2.50;1.38;;;;;;;;;;5070766;28;20015;-78
2021/07/05 10:44:04;;;;;;;2.65;1.13;;;;;;;;;;5070405;28;20129;-81
2021/07/05 10:46:39;;;;;;;1.63;1.02;;;;;;;;;;5075730;28;20048;-78
2021/07/05 10:49:07;;;;;;;3.53;1.20;;;;;;;;;;5071717;28;20049;-77
2021/07/05 10:51:42;;;;;;;2.28;1.20;;;;;;;;;;5072370;28;20104;-78
2021/07/05 10:54:11;;;;;;;3.55;1.45;;;;;;;;;;5071884;28;20044;-76
2021/07/05 10:56:43;;;;;;;2.75;1.30;;;;;;;;;;5072107;28;20078;-76
2021/07/05 10:59:46;;;;;;;3.47;1.83;;;;;;;;;;5071165;28;20049;-82
2021/07/05 11:02:32;;;;;;;14.00;7.13;;;;;;;;;;5051466;28;20049;-78
2021/07/05 11:04:59;;;;;;;3.58;2.15;;;;;;;;;;5051749;28;20069;-76
2021/07/05 11:07:43;;;;;;;6.05;2.20;;;;;;;;;;5057041;28;20051;-75
2021/07/05 11:10:18;;;;;;;3.85;1.80;;;;;;;;;;5067251;28;20441;-77
2021/07/05 11:25:28;;;;;;;2.22;1.40;;;;;;;;;;5129657;27;20432;-76
2021/07/05 11:27:58;;;;;;;2.45;1.30;;;;;;;;;;5112255;28;20051;-76
2021/07/05 11:30:45;;;;;;;2.13;1.23;;;;;;;;;;5119877;28;20138;-76
2021/07/05 11:33:27;;;;;;;2.95;1.50;;;;;;;;;;5114459;28;20112;-75
2021/07/05 11:35:58;;;;;;;1.90;1.20;;;;;;;;;;5108800;28;20043;-76
2021/07/05 11:38:38;;;;;;;3.38;1.60;;;;;;;;;;5109260;28;20073;-75
2021/07/05 11:41:24;;;;;;;3.80;1.50;;;;;;;;;;5123506;28;20051;-78
2021/07/05 11:43:55;;;;;;;2.53;1.40;;;;;;;;;;5127897;28;20499;-76
2021/07/05 11:46:48;;;;;;;2.42;1.20;;;;;;;;;;5126891;28;20047;-76
2021/07/05 11:49:18;;;;;;;2.17;1.20;;;;;;;;;;5128260;28;20078;-75
2021/07/05 11:51:50;;;;;;;2.67;1.30;;;;;;;;;;5127935;28;20127;-75
2021/07/05 11:54:19;;;;;;;2.08;1.10;;;;;;;;;;5127895;28;20099;-75
2021/07/05 11:56:50;;;;;;;1.95;1.15;;;;;;;;;;5128128;28;20126;-75
2021/07/05 11:59:21;;;;;;;2.15;1.35;;;;;;;;;;5128446;28;20122;-77
2021/07/05 12:01:48;;;;;;;2.78;1.05;;;;;;;;;;5129997;28;20071;-75
2021/07/05 12:04:14;;;;;;;2.13;1.17;;;;;;;;;;5129730;28;20082;-75
2021/07/05 12:06:49;;;;;;;2.72;1.20;;;;;;;;;;5129491;28;20065;-75
2021/07/05 12:09:17;;;;;;;2.38;1.17;;;;;;;;;;5128023;28;20040;-75
2021/07/05 12:11:45;;;;;;;2.38;1.13;;;;;;;;;;5128671;28;20108;-75
2021/07/05 12:14:17;;;;;;;2.65;1.13;;;;;;;;;;5118683;28;20533;-75
2021/07/05 12:16:48;;;;;;;2.75;1.08;;;;;;;;;;5107932;28;20094;-75
2021/07/05 12:19:15;;;;;;;2.20;1.20;;;;;;;;;;5107477;28;20048;-73
2021/07/05 12:21:45;;;;;;;4.43;1.20;;;;;;;;;;5107952;28;20560;-75
2021/07/05 12:24:18;;;;;;;3.10;1.20;;;;;;;;;;5108718;28;20051;-75
2021/07/05 12:26:49;;;;;;;4.15;1.00;;;;;;;;;;5108085;28;20126;-75
2021/07/05 12:29:21;;;;;;;3.03;0.93;;;;;;;;;;5108580;28;20075;-75
2021/07/05 12:32:08;;;;;;;1.60;0.88;;;;;;;;;;5107612;28;20048;-75
2021/07/05 12:34:50;;;;;;;3.25;1.10;;;;;;;;;;5108147;28;20083;-75
2021/07/05 12:37:21;;;;;;;2.58;1.10;;;;;;;;;;5093409;28;20101;-75
2021/07/05 12:39:54;;;;;;;2.42;1.05;;;;;;;;;;5093649;28;20488;-76
2021/07/05 12:42:37;;;;;;;1.27;0.80;;;;;;;;;;5093271;28;20075;-75
2021/07/05 12:45:09;;;;;;;1.90;1.00;;;;;;;;;;5094170;28;20524;-75
2021/07/05 12:47:51;;;;;;;1.98;0.95;;;;;;;;;;5093288;28;20532;-75
2021/07/05 12:50:19;;;;;;;2.63;1.30;;;;;;;;;;5093499;28;20123;-75
2021/07/05 12:53:02;;;;;;;2.72;1.10;;;;;;;;;;5093915;28;20101;-75
2021/07/05 12:55:29;;;;;;;1.65;0.93;;;;;;;;;;5091644;28;20100;-75
2021/07/05 12:57:56;;;;;;;1.80;1.08;;;;;;;;;;5092871;28;20208;-75
2021/07/05 13:00:26;;;;;;;2.40;0.88;;;;;;;;;;5092918;28;20083;-76
2021/07/05 13:02:54;;;;;;;1.52;0.90;;;;;;;;;;5092641;28;20080;-75
2021/07/05 13:05:22;;;;;;;2.50;0.85;;;;;;;;;;5092758;28;20080;-75
2021/07/05 13:07:57;;;;;;;4.60;1.67;;;;;;;;;;5093132;28;20048;-75
2021/07/05 13:10:29;;;;;;;2.83;1.30;;;;;;;;;;5092507;28;20052;-76
2021/07/05 13:12:57;;;;;;;2.40;1.30;;;;;;;;;;5112016;28;20072;-75
2021/07/05 13:15:30;;;;;;;1.67;1.02;;;;;;;;;;5112929;28;20047;-74
2021/07/05 13:17:56;;;;;;;1.98;1.00;;;;;;;;;;5097127;28;20463;-76
2021/07/05 13:20:23;;;;;;;3.13;1.35;;;;;;;;;;5094085;28;20535;-75
2021/07/05 13:22:53;;;;;;;2.35;1.00;;;;;;;;;;5092862;28;20421;-75
2021/07/05 13:25:20;;;;;;;3.37;1.07;;;;;;;;;;5091591;28;20080;-76
2021/07/05 13:27:47;;;;;;;1.98;0.82;;;;;;;;;;5092179;28;20354;-77
2021/07/05 13:30:16;;;;;;;2.33;0.90;;;;;;;;;;5092675;28;20087;-77
2021/07/05 13:32:57;;;;;;;2.38;1.27;;;;;;;;;;5091893;28;20083;-77
2021/07/05 13:35:28;;;;;;;2.53;1.10;;;;;;;;;;5092482;28;20716;-76
2021/07/05 13:37:59;;;;;;;2.42;1.08;;;;;;;;;;5091975;28;20485;-76
2021/07/05 13:40:26;;;;;;;2.30;1.30;;;;;;;;;;5091836;28;20613;-76
2021/07/05 13:42:58;;;;;;;2.05;0.90;;;;;;;;;;5092116;28;20105;-76
2021/07/05 13:45:27;;;;;;;2.67;0.90;;;;;;;;;;5092203;28;20082;-76
2021/07/05 13:47:57;;;;;;;2.08;0.90;;;;;;;;;;5091006;28;20071;-76
2021/07/05 13:50:25;;;;;;;3.10;1.05;;;;;;;;;;5091404;28;20079;-76
2021/07/05 13:52:55;;;;;;;1.88;1.02;;;;;;;;;;5091893;28;20127;-77
2021/07/05 13:55:33;;;;;;;1.63;1.00;;;;;;;;;;5091511;28;20044;-77
2021/07/05 13:58:04;;;;;;;3.90;1.05;;;;;;;;;;5091646;28;20457;-76
2021/07/05 14:00:33;;;;;;;2.35;1.10;;;;;;;;;;5091051;28;20130;-75
2021/07/05 14:03:01;;;;;;;2.03;1.13;;;;;;;;;;5091147;28;20087;-76
2021/07/05 14:05:30;;;;;;;2.47;1.17;;;;;;;;;;5091972;28;20071;-75
2021/07/05 14:07:58;;;;;;;1.73;0.93;;;;;;;;;;5091754;28;20044;-75
2021/07/05 14:10:25;;;;;;;2.53;1.10;;;;;;;;;;5092607;28;20137;-76
2021/07/05 14:12:54;;;;;;;2.63;1.10;;;;;;;;;;5110023;28;20504;-76
2021/07/05 14:15:21;;;;;;;2.00;1.10;;;;;;;;;;5103916;28;20079;-77
2021/07/05 14:17:55;;;;;;;1.98;1.38;;;;;;;;;;5113075;28;20064;-81
2021/07/05 14:20:23;;;;;;;3.28;1.48;;;;;;;;;;5117415;28;20047;-76
2021/07/05 14:22:50;;;;;;;2.10;0.93;;;;;;;;;;5113178;28;20135;-74
2021/07/05 14:25:17;;;;;;;2.88;1.33;;;;;;;;;;5113480;28;20047;-76
2021/07/05 14:27:53;;;;;;;2.95;1.00;;;;;;;;;;5112554;28;20078;-81
2021/07/05 14:30:21;;;;;;;1.33;0.70;;;;;;;;;;5095860;28;20074;-83
2021/07/05 14:32:48;;;;;;;2.47;1.00;;;;;;;;;;5114782;28;20079;-79
2021/07/05 14:35:15;;;;;;;1.35;0.85;;;;;;;;;;5116945;28;20485;-80
2021/07/05 14:37:44;;;;;;;3.25;1.00;;;;;;;;;;5123031;28;20416;-75
2021/07/05 14:40:12;;;;;;;4.85;1.08;;;;;;;;;;5124797;28;20096;-78
2021/07/05 14:42:39;;;;;;;2.88;1.13;;;;;;;;;;5118062;28;20253;-76
2021/07/05 14:45:08;;;;;;;2.80;1.08;;;;;;;;;;5122552;28;20050;-76
2021/07/05 14:47:35;;;;;;;3.75;0.93;;;;;;;;;;5115095;28;20071;-77
2021/07/05 14:50:02;;;;;;;1.55;0.90;;;;;;;;;;5113678;28;20079;-76
2021/07/05 14:52:30;;;;;;;1.90;0.98;;;;;;;;;;5108371;28;20043;-77
2021/07/05 14:54:58;;;;;;;2.28;1.00;;;;;;;;;;5090423;28;20054;-77
2021/07/05 14:57:26;;;;;;;2.33;1.00;;;;;;;;;;5106333;28;20623;-76
2021/07/05 14:59:52;;;;;;;1.17;0.80;;;;;;;;;;5110495;28;20050;-76
2021/07/05 15:02:19;;;;;;;2.97;0.90;;;;;;;;;;5110947;28;20078;-77
2021/07/05 15:04:46;;;;;;;3.10;1.05;;;;;;;;;;5110749;28;20497;-77
2021/07/05 15:07:13;;;;;;;2.30;0.90;;;;;;;;;;5112206;28;20040;-77
2021/07/05 15:09:40;;;;;;;3.03;0.93;;;;;;;;;;5112169;28;20568;-77